sensor_id;sensor_type;location;lat;lon;timestamp;temperature;humidity
48208;DHT22;33997;53.278;9.708;2024-01-15T00:02:08;0.50;98.50
48208;DHT22;33997;53.278;9.708;2024-01-15T00:04:37;0.40;98.40
48208;DHT22;33997;53.278;9.708;2024-01-15T00:07:04;0.40;98.50
48208;DHT22;33997;53.278;9.708;2024-01-15T00:09:29;0.50;98.50
48208;DHT22;33997;53.278;9.708;2024-01-15T00:11:54;0.50;98.60
48208;DHT22;33997;53.278;9.708;2024-01-15T00:14:20;0.50;98.50
48208;DHT22;33997;53.278;9.708;2024-01-15T00:16:46;0.60;98.50
48208;DHT22;33997;53.278;9.708;2024-01-15T00:19:11;0.60;98.40
48208;DHT22;33997;53.278;9.708;2024-01-15T00:21:37;0.60;98.30
48208;DHT22;33997;53.278;9.708;2024-01-15T00:24:02;0.60;98.30
48208;DHT22;33997;53.278;9.708;2024-01-15T00:26:28;0.60;98.10
48208;DHT22;33997;53.278;9.708;2024-01-15T00:28:53;0.70;97.90
48208;DHT22;33997;53.278;9.708;2024-01-15T00:31:19;0.70;97.80
48208;DHT22;33997;53.278;9.708;2024-01-15T00:33:44;0.70;97.60
48208;DHT22;33997;53.278;9.708;2024-01-15T00:36:10;0.80;97.50
48208;DHT22;33997;53.278;9.708;2024-01-15T00:38:35;0.80;97.60
48208;DHT22;33997;53.278;9.708;2024-01-15T00:41:01;0.80;97.10
48208;DHT22;33997;53.278;9.708;2024-01-15T00:43:27;0.80;96.90
48208;DHT22;33997;53.278;9.708;2024-01-15T00:45:52;0.90;97.00
48208;DHT22;33997;53.278;9.708;2024-01-15T00:48:18;0.90;96.90
48208;DHT22;33997;53.278;9.708;2024-01-15T00:50:43;0.90;96.70
48208;DHT22;33997;53.278;9.708;2024-01-15T00:53:09;0.90;96.90
48208;DHT22;33997;53.278;9.708;2024-01-15T00:55:34;0.90;97.00
48208;DHT22;33997;53.278;9.708;2024-01-15T00:58:00;0.90;96.60
48208;DHT22;33997;53.278;9.708;2024-01-15T01:00:25;0.90;96.60
48208;DHT22;33997;53.278;9.708;2024-01-15T01:02:50;0.90;96.70
48208;DHT22;33997;53.278;9.708;2024-01-15T01:05:16;0.90;96.70
48208;DHT22;33997;53.278;9.708;2024-01-15T01:07:41;1.00;96.30
48208;DHT22;33997;53.278;9.708;2024-01-15T01:10:07;0.90;96.60
48208;DHT22;33997;53.278;9.708;2024-01-15T01:12:33;0.90;96.60
48208;DHT22;33997;53.278;9.708;2024-01-15T01:14:58;0.90;96.90
48208;DHT22;33997;53.278;9.708;2024-01-15T01:17:24;0.90;96.80
48208;DHT22;33997;53.278;9.708;2024-01-15T01:19:50;0.80;97.10
48208;DHT22;33997;53.278;9.708;2024-01-15T01:22:15;0.80;97.70
48208;DHT22;33997;53.278;9.708;2024-01-15T01:24:41;0.70;98.00
48208;DHT22;33997;53.278;9.708;2024-01-15T01:27:06;0.70;98.10
48208;DHT22;33997;53.278;9.708;2024-01-15T01:29:32;0.70;98.20
48208;DHT22;33997;53.278;9.708;2024-01-15T01:31:58;0.70;98.30
48208;DHT22;33997;53.278;9.708;2024-01-15T01:34:23;0.80;97.90
48208;DHT22;33997;53.278;9.708;2024-01-15T01:36:49;0.90;97.70
48208;DHT22;33997;53.278;9.708;2024-01-15T01:39:14;0.90;97.70
48208;DHT22;33997;53.278;9.708;2024-01-15T01:41:40;1.00;97.70
48208;DHT22;33997;53.278;9.708;2024-01-15T01:44:05;1.00;97.80
48208;DHT22;33997;53.278;9.708;2024-01-15T01:46:31;1.00;98.00
48208;DHT22;33997;53.278;9.708;2024-01-15T01:48:57;1.00;98.00
48208;DHT22;33997;53.278;9.708;2024-01-15T01:51:24;0.90;98.20
48208;DHT22;33997;53.278;9.708;2024-01-15T01:53:50;1.00;98.00
48208;DHT22;33997;53.278;9.708;2024-01-15T01:56:16;1.00;98.10
48208;DHT22;33997;53.278;9.708;2024-01-15T01:58:43;0.90;98.30
48208;DHT22;33997;53.278;9.708;2024-01-15T02:01:10;0.80;98.40
48208;DHT22;33997;53.278;9.708;2024-01-15T02:03:36;0.80;98.80
48208;DHT22;33997;53.278;9.708;2024-01-15T02:06:01;0.70;99.00
48208;DHT22;33997;53.278;9.708;2024-01-15T02:08:27;0.60;99.20
48208;DHT22;33997;53.278;9.708;2024-01-15T02:10:52;0.60;99.40
48208;DHT22;33997;53.278;9.708;2024-01-15T02:13:19;0.60;99.40
48208;DHT22;33997;53.278;9.708;2024-01-15T02:15:45;0.70;99.30
48208;DHT22;33997;53.278;9.708;2024-01-15T02:18:10;0.70;99.20
48208;DHT22;33997;53.278;9.708;2024-01-15T02:20:36;0.60;99.30
48208;DHT22;33997;53.278;9.708;2024-01-15T02:23:09;0.70;99.40
48208;DHT22;33997;53.278;9.708;2024-01-15T02:25:42;0.70;99.40
48208;DHT22;33997;53.278;9.708;2024-01-15T02:28:10;0.70;99.50
48208;DHT22;33997;53.278;9.708;2024-01-15T02:30:38;0.80;99.50
48208;DHT22;33997;53.278;9.708;2024-01-15T02:33:10;0.80;99.50
48208;DHT22;33997;53.278;9.708;2024-01-15T02:35:36;0.80;99.40
48208;DHT22;33997;53.278;9.708;2024-01-15T02:38:02;0.80;99.40
48208;DHT22;33997;53.278;9.708;2024-01-15T02:40:28;0.80;99.40
48208;DHT22;33997;53.278;9.708;2024-01-15T02:42:54;0.80;99.40
48208;DHT22;33997;53.278;9.708;2024-01-15T02:45:20;0.90;99.40
48208;DHT22;33997;53.278;9.708;2024-01-15T02:47:46;0.90;99.20
48208;DHT22;33997;53.278;9.708;2024-01-15T02:50:11;1.00;98.80
48208;DHT22;33997;53.278;9.708;2024-01-15T02:52:37;1.00;98.80
48208;DHT22;33997;53.278;9.708;2024-01-15T02:55:02;1.00;98.70
48208;DHT22;33997;53.278;9.708;2024-01-15T02:57:28;1.00;98.70
48208;DHT22;33997;53.278;9.708;2024-01-15T02:59:53;0.90;98.80
48208;DHT22;33997;53.278;9.708;2024-01-15T03:02:19;0.90;98.90
48208;DHT22;33997;53.278;9.708;2024-01-15T03:04:44;0.80;99.10
48208;DHT22;33997;53.278;9.708;2024-01-15T03:07:10;0.90;99.20
48208;DHT22;33997;53.278;9.708;2024-01-15T03:09:35;0.90;99.30
48208;DHT22;33997;53.278;9.708;2024-01-15T03:12:01;0.90;99.20
48208;DHT22;33997;53.278;9.708;2024-01-15T03:14:26;1.00;99.10
48208;DHT22;33997;53.278;9.708;2024-01-15T03:16:52;1.00;98.90
48208;DHT22;33997;53.278;9.708;2024-01-15T03:19:18;1.00;98.90
48208;DHT22;33997;53.278;9.708;2024-01-15T03:21:43;0.90;98.80
48208;DHT22;33997;53.278;9.708;2024-01-15T03:24:09;0.90;98.80
48208;DHT22;33997;53.278;9.708;2024-01-15T03:26:34;1.00;98.70
48208;DHT22;33997;53.278;9.708;2024-01-15T03:29:00;1.00;98.70
48208;DHT22;33997;53.278;9.708;2024-01-15T03:31:26;0.90;98.80
48208;DHT22;33997;53.278;9.708;2024-01-15T03:33:51;0.90;98.90
48208;DHT22;33997;53.278;9.708;2024-01-15T03:36:17;0.90;99.00
48208;DHT22;33997;53.278;9.708;2024-01-15T03:38:42;0.80;99.10
48208;DHT22;33997;53.278;9.708;2024-01-15T03:41:08;0.80;99.20
48208;DHT22;33997;53.278;9.708;2024-01-15T03:43:33;0.90;99.30
48208;DHT22;33997;53.278;9.708;2024-01-15T03:45:59;1.00;99.10
48208;DHT22;33997;53.278;9.708;2024-01-15T03:48:24;1.00;98.80
48208;DHT22;33997;53.278;9.708;2024-01-15T03:50:50;1.00;98.60
48208;DHT22;33997;53.278;9.708;2024-01-15T03:53:15;1.00;98.70
48208;DHT22;33997;53.278;9.708;2024-01-15T03:55:41;0.90;98.60
48208;DHT22;33997;53.278;9.708;2024-01-15T03:58:07;1.00;98.60
48208;DHT22;33997;53.278;9.708;2024-01-15T04:00:32;1.00;98.50
48208;DHT22;33997;53.278;9.708;2024-01-15T04:02:58;1.00;98.70
48208;DHT22;33997;53.278;9.708;2024-01-15T04:05:23;0.90;98.80
48208;DHT22;33997;53.278;9.708;2024-01-15T04:07:49;0.90;98.90
48208;DHT22;33997;53.278;9.708;2024-01-15T04:10:14;0.90;98.90
48208;DHT22;33997;53.278;9.708;2024-01-15T04:12:40;0.90;99.00
48208;DHT22;33997;53.278;9.708;2024-01-15T04:15:06;0.90;99.10
48208;DHT22;33997;53.278;9.708;2024-01-15T04:17:31;0.90;99.10
48208;DHT22;33997;53.278;9.708;2024-01-15T04:19:57;0.80;99.10
48208;DHT22;33997;53.278;9.708;2024-01-15T04:22:23;0.80;99.20
48208;DHT22;33997;53.278;9.708;2024-01-15T04:24:48;0.80;99.10
48208;DHT22;33997;53.278;9.708;2024-01-15T04:27:14;0.80;99.10
48208;DHT22;33997;53.278;9.708;2024-01-15T04:29:39;0.80;99.00
48208;DHT22;33997;53.278;9.708;2024-01-15T04:32:05;0.80;99.10
48208;DHT22;33997;53.278;9.708;2024-01-15T04:34:30;0.80;99.10
48208;DHT22;33997;53.278;9.708;2024-01-15T04:36:56;0.80;99.20
48208;DHT22;33997;53.278;9.708;2024-01-15T04:39:21;0.80;99.20
48208;DHT22;33997;53.278;9.708;2024-01-15T04:41:47;0.80;99.30
48208;DHT22;33997;53.278;9.708;2024-01-15T04:44:13;0.70;99.40
48208;DHT22;33997;53.278;9.708;2024-01-15T04:46:38;0.80;99.40
48208;DHT22;33997;53.278;9.708;2024-01-15T04:49:04;0.80;99.50
48208;DHT22;33997;53.278;9.708;2024-01-15T04:51:29;0.80;99.40
48208;DHT22;33997;53.278;9.708;2024-01-15T04:53:55;0.80;99.40
48208;DHT22;33997;53.278;9.708;2024-01-15T04:56:20;0.80;99.40
48208;DHT22;33997;53.278;9.708;2024-01-15T04:58:46;0.80;99.40
48208;DHT22;33997;53.278;9.708;2024-01-15T05:01:11;0.90;99.30
48208;DHT22;33997;53.278;9.708;2024-01-15T05:03:37;0.80;99.10
48208;DHT22;33997;53.278;9.708;2024-01-15T05:06:03;0.80;99.00
48208;DHT22;33997;53.278;9.708;2024-01-15T05:08:28;0.80;99.10
48208;DHT22;33997;53.278;9.708;2024-01-15T05:10:54;0.70;99.20
48208;DHT22;33997;53.278;9.708;2024-01-15T05:13:19;0.70;99.20
48208;DHT22;33997;53.278;9.708;2024-01-15T05:15:45;0.70;99.30
48208;DHT22;33997;53.278;9.708;2024-01-15T05:18:10;0.70;99.30
48208;DHT22;33997;53.278;9.708;2024-01-15T05:20:36;0.70;99.20
48208;DHT22;33997;53.278;9.708;2024-01-15T05:23:01;0.60;99.30
48208;DHT22;33997;53.278;9.708;2024-01-15T05:25:26;0.60;99.40
48208;DHT22;33997;53.278;9.708;2024-01-15T05:27:52;0.60;99.30
48208;DHT22;33997;53.278;9.708;2024-01-15T05:30:17;0.70;99.30
48208;DHT22;33997;53.278;9.708;2024-01-15T05:32:43;0.60;99.20
48208;DHT22;33997;53.278;9.708;2024-01-15T05:35:08;0.60;99.30
48208;DHT22;33997;53.278;9.708;2024-01-15T05:37:34;0.60;99.30
48208;DHT22;33997;53.278;9.708;2024-01-15T05:39:59;0.70;99.30
48208;DHT22;33997;53.278;9.708;2024-01-15T05:42:25;0.70;99.20
48208;DHT22;33997;53.278;9.708;2024-01-15T05:44:51;0.70;99.20
48208;DHT22;33997;53.278;9.708;2024-01-15T05:47:17;0.70;99.10
48208;DHT22;33997;53.278;9.708;2024-01-15T05:49:43;0.60;99.10
48208;DHT22;33997;53.278;9.708;2024-01-15T05:52:09;0.60;99.20
48208;DHT22;33997;53.278;9.708;2024-01-15T05:54:35;0.70;99.30
48208;DHT22;33997;53.278;9.708;2024-01-15T05:57:00;0.60;99.20
48208;DHT22;33997;53.278;9.708;2024-01-15T05:59:25;0.60;99.20
48208;DHT22;33997;53.278;9.708;2024-01-15T06:01:51;0.60;99.30
48208;DHT22;33997;53.278;9.708;2024-01-15T06:04:16;0.70;99.20
48208;DHT22;33997;53.278;9.708;2024-01-15T06:06:42;0.80;99.20
48208;DHT22;33997;53.278;9.708;2024-01-15T06:09:07;0.80;99.20
48208;DHT22;33997;53.278;9.708;2024-01-15T06:11:34;0.80;99.10
48208;DHT22;33997;53.278;9.708;2024-01-15T06:14:00;0.80;99.20
48208;DHT22;33997;53.278;9.708;2024-01-15T06:16:29;0.80;99.10
48208;DHT22;33997;53.278;9.708;2024-01-15T06:18:54;0.80;99.00
48208;DHT22;33997;53.278;9.708;2024-01-15T06:21:20;0.80;98.90
48208;DHT22;33997;53.278;9.708;2024-01-15T06:23:45;0.90;98.70
48208;DHT22;33997;53.278;9.708;2024-01-15T06:26:14;0.90;98.70
48208;DHT22;33997;53.278;9.708;2024-01-15T06:28:39;0.90;98.70
48208;DHT22;33997;53.278;9.708;2024-01-15T06:31:06;0.90;98.70
48208;DHT22;33997;53.278;9.708;2024-01-15T06:33:32;0.80;98.70
48208;DHT22;33997;53.278;9.708;2024-01-15T06:35:57;0.80;99.00
48208;DHT22;33997;53.278;9.708;2024-01-15T06:38:23;0.70;99.20
48208;DHT22;33997;53.278;9.708;2024-01-15T06:40:48;0.60;99.40
48208;DHT22;33997;53.278;9.708;2024-01-15T06:43:14;0.60;99.50
48208;DHT22;33997;53.278;9.708;2024-01-15T06:45:41;0.60;99.80
48208;DHT22;33997;53.278;9.708;2024-01-15T06:48:06;0.60;99.90
48208;DHT22;33997;53.278;9.708;2024-01-15T06:50:33;0.60;99.90
48208;DHT22;33997;53.278;9.708;2024-01-15T06:52:58;0.50;99.90
48208;DHT22;33997;53.278;9.708;2024-01-15T06:55:24;0.50;99.90
48208;DHT22;33997;53.278;9.708;2024-01-15T06:57:49;0.40;99.90
48208;DHT22;33997;53.278;9.708;2024-01-15T07:00:15;0.40;99.90
48208;DHT22;33997;53.278;9.708;2024-01-15T07:02:41;0.40;99.90
48208;DHT22;33997;53.278;9.708;2024-01-15T07:05:07;0.40;99.90
48208;DHT22;33997;53.278;9.708;2024-01-15T07:07:32;0.40;99.90
48208;DHT22;33997;53.278;9.708;2024-01-15T07:09:58;0.40;99.90
48208;DHT22;33997;53.278;9.708;2024-01-15T07:12:23;0.40;99.90
48208;DHT22;33997;53.278;9.708;2024-01-15T07:14:49;0.40;99.90
48208;DHT22;33997;53.278;9.708;2024-01-15T07:17:15;0.40;99.90
48208;DHT22;33997;53.278;9.708;2024-01-15T07:19:40;0.40;99.90
48208;DHT22;33997;53.278;9.708;2024-01-15T07:22:06;0.40;99.90
48208;DHT22;33997;53.278;9.708;2024-01-15T07:24:32;0.40;99.90
48208;DHT22;33997;53.278;9.708;2024-01-15T07:26:59;0.30;99.90
48208;DHT22;33997;53.278;9.708;2024-01-15T07:29:25;0.30;99.90
48208;DHT22;33997;53.278;9.708;2024-01-15T07:31:51;0.30;99.90
48208;DHT22;33997;53.278;9.708;2024-01-15T07:34:17;0.30;99.90
48208;DHT22;33997;53.278;9.708;2024-01-15T07:36:46;0.30;99.90
48208;DHT22;33997;53.278;9.708;2024-01-15T07:39:11;0.40;99.90
48208;DHT22;33997;53.278;9.708;2024-01-15T07:41:37;0.40;99.90
48208;DHT22;33997;53.278;9.708;2024-01-15T07:44:02;0.40;99.90
48208;DHT22;33997;53.278;9.708;2024-01-15T07:46:28;0.30;99.90
48208;DHT22;33997;53.278;9.708;2024-01-15T07:48:54;0.30;99.90
48208;DHT22;33997;53.278;9.708;2024-01-15T07:51:25;0.30;99.90
48208;DHT22;33997;53.278;9.708;2024-01-15T07:53:53;0.20;99.90
48208;DHT22;33997;53.278;9.708;2024-01-15T07:56:19;0.20;99.90
48208;DHT22;33997;53.278;9.708;2024-01-15T07:58:44;0.20;99.90
48208;DHT22;33997;53.278;9.708;2024-01-15T08:01:10;0.20;99.90
48208;DHT22;33997;53.278;9.708;2024-01-15T08:03:36;0.10;99.90
48208;DHT22;33997;53.278;9.708;2024-01-15T08:06:01;0.10;99.90
48208;DHT22;33997;53.278;9.708;2024-01-15T08:08:27;0.10;99.90
48208;DHT22;33997;53.278;9.708;2024-01-15T08:10:53;0.10;99.90
48208;DHT22;33997;53.278;9.708;2024-01-15T08:13:18;0.10;99.90
48208;DHT22;33997;53.278;9.708;2024-01-15T08:15:44;0.10;99.90
48208;DHT22;33997;53.278;9.708;2024-01-15T08:18:09;0.10;99.90
48208;DHT22;33997;53.278;9.708;2024-01-15T08:20:35;0.10;99.90
48208;DHT22;33997;53.278;9.708;2024-01-15T08:23:00;0.10;99.90
48208;DHT22;33997;53.278;9.708;2024-01-15T08:25:26;0.10;99.90
48208;DHT22;33997;53.278;9.708;2024-01-15T08:27:52;0.10;99.90
48208;DHT22;33997;53.278;9.708;2024-01-15T08:30:17;0.10;99.90
48208;DHT22;33997;53.278;9.708;2024-01-15T08:32:44;0.10;99.90
48208;DHT22;33997;53.278;9.708;2024-01-15T08:35:10;0.10;99.90
48208;DHT22;33997;53.278;9.708;2024-01-15T08:37:35;0.10;99.90
48208;DHT22;33997;53.278;9.708;2024-01-15T08:40:01;0.10;99.90
48208;DHT22;33997;53.278;9.708;2024-01-15T08:42:26;0.10;99.90
48208;DHT22;33997;53.278;9.708;2024-01-15T08:44:52;0.10;99.90
48208;DHT22;33997;53.278;9.708;2024-01-15T08:47:17;0.10;99.90
48208;DHT22;33997;53.278;9.708;2024-01-15T08:49:43;0.10;99.90
48208;DHT22;33997;53.278;9.708;2024-01-15T08:52:10;0.10;99.90
48208;DHT22;33997;53.278;9.708;2024-01-15T08:54:36;0.10;99.90
48208;DHT22;33997;53.278;9.708;2024-01-15T08:57:01;0.20;99.90
48208;DHT22;33997;53.278;9.708;2024-01-15T08:59:27;0.20;99.90
48208;DHT22;33997;53.278;9.708;2024-01-15T09:01:53;0.20;99.90
48208;DHT22;33997;53.278;9.708;2024-01-15T09:04:18;0.20;99.90
48208;DHT22;33997;53.278;9.708;2024-01-15T09:06:45;0.30;99.90
48208;DHT22;33997;53.278;9.708;2024-01-15T09:09:12;0.30;99.90
48208;DHT22;33997;53.278;9.708;2024-01-15T09:11:38;0.30;99.90
48208;DHT22;33997;53.278;9.708;2024-01-15T09:14:04;0.40;99.90
48208;DHT22;33997;53.278;9.708;2024-01-15T09:16:29;0.40;99.90
48208;DHT22;33997;53.278;9.708;2024-01-15T09:18:55;0.50;99.90
48208;DHT22;33997;53.278;9.708;2024-01-15T09:21:22;0.50;99.90
48208;DHT22;33997;53.278;9.708;2024-01-15T09:23:49;0.60;99.90
48208;DHT22;33997;53.278;9.708;2024-01-15T09:26:15;0.60;99.90
48208;DHT22;33997;53.278;9.708;2024-01-15T09:28:40;0.70;99.90
48208;DHT22;33997;53.278;9.708;2024-01-15T09:31:06;0.70;99.90
48208;DHT22;33997;53.278;9.708;2024-01-15T09:33:31;0.70;99.90
48208;DHT22;33997;53.278;9.708;2024-01-15T09:35:57;0.70;99.70
48208;DHT22;33997;53.278;9.708;2024-01-15T09:38:22;0.70;99.60
48208;DHT22;33997;53.278;9.708;2024-01-15T09:40:49;0.80;99.50
48208;DHT22;33997;53.278;9.708;2024-01-15T09:43:15;0.70;99.40
48208;DHT22;33997;53.278;9.708;2024-01-15T09:45:42;0.80;99.30
48208;DHT22;33997;53.278;9.708;2024-01-15T09:48:08;0.80;99.30
48208;DHT22;33997;53.278;9.708;2024-01-15T09:50:34;0.70;99.20
48208;DHT22;33997;53.278;9.708;2024-01-15T09:53:00;0.70;99.30
48208;DHT22;33997;53.278;9.708;2024-01-15T09:55:27;0.70;99.30
48208;DHT22;33997;53.278;9.708;2024-01-15T09:57:55;0.70;99.30
48208;DHT22;33997;53.278;9.708;2024-01-15T10:00:22;0.60;99.40
48208;DHT22;33997;53.278;9.708;2024-01-15T10:02:48;0.60;99.50
48208;DHT22;33997;53.278;9.708;2024-01-15T10:05:14;0.50;99.60
48208;DHT22;33997;53.278;9.708;2024-01-15T10:07:40;0.40;99.70
48208;DHT22;33997;53.278;9.708;2024-01-15T10:10:06;0.40;99.80
48208;DHT22;33997;53.278;9.708;2024-01-15T10:12:33;0.30;99.90
48208;DHT22;33997;53.278;9.708;2024-01-15T10:14:58;0.30;99.90
48208;DHT22;33997;53.278;9.708;2024-01-15T10:17:24;0.20;99.90
48208;DHT22;33997;53.278;9.708;2024-01-15T10:19:52;0.10;99.90
48208;DHT22;33997;53.278;9.708;2024-01-15T10:22:17;0.10;99.90
48208;DHT22;33997;53.278;9.708;2024-01-15T10:24:43;0.20;99.90
48208;DHT22;33997;53.278;9.708;2024-01-15T10:27:10;0.20;99.90
48208;DHT22;33997;53.278;9.708;2024-01-15T10:29:36;0.20;99.90
48208;DHT22;33997;53.278;9.708;2024-01-15T10:32:02;0.20;99.90
48208;DHT22;33997;53.278;9.708;2024-01-15T10:34:28;0.20;99.90
48208;DHT22;33997;53.278;9.708;2024-01-15T10:36:54;0.30;99.90
48208;DHT22;33997;53.278;9.708;2024-01-15T10:39:23;0.30;99.90
48208;DHT22;33997;53.278;9.708;2024-01-15T10:41:52;0.30;99.90
48208;DHT22;33997;53.278;9.708;2024-01-15T10:44:17;0.40;99.90
48208;DHT22;33997;53.278;9.708;2024-01-15T10:46:45;0.40;99.90
48208;DHT22;33997;53.278;9.708;2024-01-15T10:49:11;0.40;99.90
48208;DHT22;33997;53.278;9.708;2024-01-15T10:51:37;0.40;99.90
48208;DHT22;33997;53.278;9.708;2024-01-15T10:54:03;0.40;99.90
48208;DHT22;33997;53.278;9.708;2024-01-15T10:56:31;0.50;99.90
48208;DHT22;33997;53.278;9.708;2024-01-15T10:58:59;0.50;99.90
48208;DHT22;33997;53.278;9.708;2024-01-15T11:01:25;0.50;99.90
48208;DHT22;33997;53.278;9.708;2024-01-15T11:03:51;0.50;99.90
48208;DHT22;33997;53.278;9.708;2024-01-15T11:06:17;0.60;99.90
48208;DHT22;33997;53.278;9.708;2024-01-15T11:08:47;0.60;99.70
48208;DHT22;33997;53.278;9.708;2024-01-15T11:11:13;0.70;99.70
48208;DHT22;33997;53.278;9.708;2024-01-15T11:16:06;0.70;99.30
48208;DHT22;33997;53.278;9.708;2024-01-15T11:18:36;0.70;99.40
48208;DHT22;33997;53.278;9.708;2024-01-15T11:23:53;0.70;99.40
48208;DHT22;33997;53.278;9.708;2024-01-15T11:28:54;0.60;99.60
48208;DHT22;33997;53.278;9.708;2024-01-15T11:31:27;0.60;99.70
48208;DHT22;33997;53.278;9.708;2024-01-15T11:33:52;0.40;99.80
48208;DHT22;33997;53.278;9.708;2024-01-15T11:36:17;0.30;99.90
48208;DHT22;33997;53.278;9.708;2024-01-15T11:38:43;0.30;99.90
48208;DHT22;33997;53.278;9.708;2024-01-15T11:41:19;0.30;99.90
48208;DHT22;33997;53.278;9.708;2024-01-15T11:43:44;0.40;99.90
48208;DHT22;33997;53.278;9.708;2024-01-15T11:46:13;0.40;99.90
48208;DHT22;33997;53.278;9.708;2024-01-15T11:48:43;0.50;99.90
48208;DHT22;33997;53.278;9.708;2024-01-15T11:51:10;0.60;99.90
48208;DHT22;33997;53.278;9.708;2024-01-15T11:53:46;0.60;99.90
48208;DHT22;33997;53.278;9.708;2024-01-15T11:56:16;0.50;99.90
48208;DHT22;33997;53.278;9.708;2024-01-15T11:58:43;0.50;99.90
48208;DHT22;33997;53.278;9.708;2024-01-15T12:01:10;0.50;99.90
48208;DHT22;33997;53.278;9.708;2024-01-15T12:03:35;0.50;99.90
48208;DHT22;33997;53.278;9.708;2024-01-15T12:06:01;0.50;99.90
48208;DHT22;33997;53.278;9.708;2024-01-15T12:08:26;0.50;99.90
48208;DHT22;33997;53.278;9.708;2024-01-15T12:10:52;0.50;99.90
48208;DHT22;33997;53.278;9.708;2024-01-15T12:13:18;0.40;99.90
48208;DHT22;33997;53.278;9.708;2024-01-15T12:15:45;0.40;99.90
48208;DHT22;33997;53.278;9.708;2024-01-15T12:18:16;0.40;99.90
48208;DHT22;33997;53.278;9.708;2024-01-15T12:20:42;0.30;99.90
48208;DHT22;33997;53.278;9.708;2024-01-15T12:23:08;0.40;99.90
48208;DHT22;33997;53.278;9.708;2024-01-15T12:25:35;0.30;99.90
48208;DHT22;33997;53.278;9.708;2024-01-15T12:28:01;0.30;99.90
48208;DHT22;33997;53.278;9.708;2024-01-15T12:30:28;0.30;99.90
48208;DHT22;33997;53.278;9.708;2024-01-15T12:32:54;0.30;99.90
48208;DHT22;33997;53.278;9.708;2024-01-15T12:35:19;0.30;99.90
48208;DHT22;33997;53.278;9.708;2024-01-15T12:37:45;0.40;99.90
48208;DHT22;33997;53.278;9.708;2024-01-15T12:40:19;0.40;99.90
48208;DHT22;33997;53.278;9.708;2024-01-15T12:42:45;0.50;99.90
48208;DHT22;33997;53.278;9.708;2024-01-15T12:45:12;0.50;99.90
48208;DHT22;33997;53.278;9.708;2024-01-15T12:47:39;0.60;99.90
48208;DHT22;33997;53.278;9.708;2024-01-15T12:50:10;0.60;99.90
48208;DHT22;33997;53.278;9.708;2024-01-15T12:52:36;0.60;99.90
48208;DHT22;33997;53.278;9.708;2024-01-15T12:55:04;0.50;99.90
48208;DHT22;33997;53.278;9.708;2024-01-15T12:57:30;0.40;99.90
48208;DHT22;33997;53.278;9.708;2024-01-15T12:59:55;0.30;99.90
48208;DHT22;33997;53.278;9.708;2024-01-15T13:02:21;0.40;99.90
48208;DHT22;33997;53.278;9.708;2024-01-15T13:04:47;0.30;99.90
48208;DHT22;33997;53.278;9.708;2024-01-15T13:07:12;0.20;99.90
48208;DHT22;33997;53.278;9.708;2024-01-15T13:09:38;0.20;99.90
48208;DHT22;33997;53.278;9.708;2024-01-15T13:12:04;0.30;99.90
48208;DHT22;33997;53.278;9.708;2024-01-15T13:14:30;0.20;99.90
48208;DHT22;33997;53.278;9.708;2024-01-15T13:16:56;0.20;99.90
48208;DHT22;33997;53.278;9.708;2024-01-15T13:19:22;0.10;99.90
48208;DHT22;33997;53.278;9.708;2024-01-15T13:21:48;0.10;99.90
48208;DHT22;33997;53.278;9.708;2024-01-15T13:24:14;0.00;99.90
48208;DHT22;33997;53.278;9.708;2024-01-15T13:26:40;0.10;99.90
48208;DHT22;33997;53.278;9.708;2024-01-15T13:29:06;0.10;99.90
48208;DHT22;33997;53.278;9.708;2024-01-15T13:31:35;0.10;99.90
48208;DHT22;33997;53.278;9.708;2024-01-15T13:34:00;0.10;99.90
48208;DHT22;33997;53.278;9.708;2024-01-15T13:36:26;0.00;99.90
48208;DHT22;33997;53.278;9.708;2024-01-15T13:38:53;0.10;99.90
48208;DHT22;33997;53.278;9.708;2024-01-15T13:41:22;0.10;99.90
48208;DHT22;33997;53.278;9.708;2024-01-15T13:43:50;0.10;99.90
48208;DHT22;33997;53.278;9.708;2024-01-15T13:46:18;0.10;99.90
48208;DHT22;33997;53.278;9.708;2024-01-15T13:48:44;0.20;99.90
48208;DHT22;33997;53.278;9.708;2024-01-15T13:51:09;0.20;99.90
48208;DHT22;33997;53.278;9.708;2024-01-15T13:53:37;0.20;99.90
48208;DHT22;33997;53.278;9.708;2024-01-15T13:56:03;0.20;99.90
48208;DHT22;33997;53.278;9.708;2024-01-15T13:58:30;0.30;99.90
48208;DHT22;33997;53.278;9.708;2024-01-15T14:00:56;0.30;99.90
48208;DHT22;33997;53.278;9.708;2024-01-15T14:03:21;0.30;99.90
48208;DHT22;33997;53.278;9.708;2024-01-15T14:05:47;0.30;99.90
48208;DHT22;33997;53.278;9.708;2024-01-15T14:08:12;0.40;99.90
48208;DHT22;33997;53.278;9.708;2024-01-15T14:10:38;0.40;99.90
48208;DHT22;33997;53.278;9.708;2024-01-15T14:13:03;0.40;99.90
48208;DHT22;33997;53.278;9.708;2024-01-15T14:15:29;0.40;99.90
48208;DHT22;33997;53.278;9.708;2024-01-15T14:17:55;0.30;99.90
48208;DHT22;33997;53.278;9.708;2024-01-15T14:20:20;0.30;99.90
48208;DHT22;33997;53.278;9.708;2024-01-15T14:22:46;0.30;99.90
48208;DHT22;33997;53.278;9.708;2024-01-15T14:25:11;0.20;99.90
48208;DHT22;33997;53.278;9.708;2024-01-15T14:27:37;0.20;99.90
48208;DHT22;33997;53.278;9.708;2024-01-15T14:30:03;0.10;99.90
48208;DHT22;33997;53.278;9.708;2024-01-15T14:32:28;0.10;99.90
48208;DHT22;33997;53.278;9.708;2024-01-15T14:34:54;0.10;99.90
48208;DHT22;33997;53.278;9.708;2024-01-15T14:37:21;0.10;99.90
48208;DHT22;33997;53.278;9.708;2024-01-15T14:39:47;0.10;99.90
48208;DHT22;33997;53.278;9.708;2024-01-15T14:42:12;0.10;99.90
48208;DHT22;33997;53.278;9.708;2024-01-15T14:44:38;0.10;99.90
48208;DHT22;33997;53.278;9.708;2024-01-15T14:47:06;0.10;99.90
48208;DHT22;33997;53.278;9.708;2024-01-15T14:49:31;0.10;99.90
48208;DHT22;33997;53.278;9.708;2024-01-15T14:51:57;0.10;99.90
48208;DHT22;33997;53.278;9.708;2024-01-15T14:54:23;0.10;99.90
48208;DHT22;33997;53.278;9.708;2024-01-15T14:56:48;0.10;99.90
48208;DHT22;33997;53.278;9.708;2024-01-15T14:59:13;0.10;99.90
48208;DHT22;33997;53.278;9.708;2024-01-15T15:01:39;0.10;99.90
48208;DHT22;33997;53.278;9.708;2024-01-15T15:04:05;0.20;99.90
48208;DHT22;33997;53.278;9.708;2024-01-15T15:06:30;0.10;99.90
48208;DHT22;33997;53.278;9.708;2024-01-15T15:08:56;0.20;99.90
48208;DHT22;33997;53.278;9.708;2024-01-15T15:11:25;0.10;99.90
48208;DHT22;33997;53.278;9.708;2024-01-15T15:13:51;0.20;99.90
48208;DHT22;33997;53.278;9.708;2024-01-15T15:16:16;0.20;99.90
48208;DHT22;33997;53.278;9.708;2024-01-15T15:18:42;0.20;99.90
48208;DHT22;33997;53.278;9.708;2024-01-15T15:21:12;0.10;99.90
48208;DHT22;33997;53.278;9.708;2024-01-15T15:23:37;0.20;99.90
48208;DHT22;33997;53.278;9.708;2024-01-15T15:26:04;0.10;99.90
48208;DHT22;33997;53.278;9.708;2024-01-15T15:28:30;0.10;99.90
48208;DHT22;33997;53.278;9.708;2024-01-15T15:30:56;0.10;99.90
48208;DHT22;33997;53.278;9.708;2024-01-15T15:33:22;0.10;99.90
48208;DHT22;33997;53.278;9.708;2024-01-15T15:35:47;0.10;99.90
48208;DHT22;33997;53.278;9.708;2024-01-15T15:38:16;0.10;99.90
48208;DHT22;33997;53.278;9.708;2024-01-15T15:40:42;0.10;99.90
48208;DHT22;33997;53.278;9.708;2024-01-15T15:43:07;0.10;99.90
48208;DHT22;33997;53.278;9.708;2024-01-15T15:45:33;0.10;99.90